map of SZG home
SZG - Airport
Location
City:  Salzburg, Salzburg, Austria
Name:Salzburg W.A. Mozart
ICAO:LOWS
IATA:SZG

Details
Type:Airport (Flugplatz, Airfield)
Use:Public/Civil, International (customs port of entry)
Latitude:4747'36"N (47.793304)
Longitude:1300'16"E (13.004333)
Datum:WGS 1984
Elevation:1411 ft (430 m)
Variation:3.56E (WMM2015 magnetic declination)
0.12 annual change
Runways:1
Longest:9022 × 148 ft (2750 × 45 m), paved

Time
Time Zone:UTC+1 (DST+2)
Local Time:

Weather
METAR:LOWS 220350Z AUTO VRB01KT 7000 FEW013 BKN014 M03/M04 Q1014
TAF:LOWS 212315Z 2200/2224 VRB02KT 9999 BKN060 TXM00/2212Z TNM06/2205Z
TEMPO 2200/2208 4000 BR FEW014 BKN030
BECMG 2210/2212 SCT060

Related Locations
Nearby:
Farthest:CHT: 11904 mi / 19158 km
Waitangi [Tuuta], CIT, NZ

Find:

   beyond  
but within

Other Information
Maps:
NOTAMs:
Links:
Sources:

  
  • flag of Austria
  • flag of Salzburg
  

Sectional Chart

Flight Planning
at skyvector.com

Satellite Image

Google Maps Satellite view

 

Copyright © 2004-2019 Karl L. Swartz. All rights reserved.
The Great Circle Mapper name and logo are trademarks of the Great Circle Mapper.
All other trademarks mentioned herein belong to their respective owners.
Please see credits for attibutions and further copyright information.

  Follow gcmap on Facebook Follow gcmap on Twitter Follow gcmap on Google+ GCmap on LinkedIn

hCard Microformat

Geo Microformat